createdAt,value
2018-01-26T00:01:48.981Z,91.10
2018-01-26T00:04:15.180Z,91.40
2018-01-26T00:06:42.122Z,91.60
2018-01-26T00:09:09.982Z,91.50
2018-01-26T00:11:36.510Z,91.20
2018-01-26T00:14:03.821Z,90.90
2018-01-26T00:16:30.382Z,90.60
2018-01-26T00:18:57.594Z,90.60
2018-01-26T00:21:26.060Z,90.90
2018-01-26T00:23:53.596Z,90.70
2018-01-26T00:26:21.470Z,91.00
2018-01-26T00:28:49.196Z,90.90
2018-01-26T00:31:17.244Z,90.90
2018-01-26T00:33:43.430Z,90.40
2018-01-26T00:36:10.243Z,90.20
2018-01-26T00:38:37.267Z,90.20
2018-01-26T00:41:05.810Z,90.10
2018-01-26T00:43:35.178Z,90.00
2018-01-26T00:46:01.338Z,88.80
2018-01-26T00:48:27.561Z,89.50
2018-01-26T00:50:53.782Z,88.70
2018-01-26T00:53:21.167Z,88.80
2018-01-26T00:55:48.683Z,88.20
2018-01-26T00:58:16.254Z,88.70
2018-01-26T01:00:42.449Z,87.50
2018-01-26T01:03:08.674Z,85.80
2018-01-26T01:05:36.079Z,87.10
2018-01-26T01:08:03.181Z,85.10
2018-01-26T01:10:30.352Z,85.70
2018-01-26T01:12:56.518Z,85.60
2018-01-26T01:15:23.420Z,86.80
2018-01-26T01:17:49.628Z,86.00
2018-01-26T01:20:15.812Z,86.00
2018-01-26T01:22:41.978Z,86.00
2018-01-26T01:25:09.766Z,86.50
2018-01-26T01:27:36.223Z,86.60
2018-01-26T01:30:02.461Z,86.30
2018-01-26T01:32:28.666Z,86.40
2018-01-26T01:34:55.209Z,86.30
2018-01-26T01:37:21.866Z,86.30
2018-01-26T01:39:49.450Z,85.50
2018-01-26T01:42:16.320Z,86.20
2018-01-26T01:44:42.459Z,85.70
2018-01-26T01:47:08.683Z,86.10
2018-01-26T01:49:37.068Z,86.20
2018-01-26T02:05:08.285Z,85.90
2018-01-26T02:07:34.477Z,83.50
2018-01-26T02:10:02.166Z,85.00
2018-01-26T02:12:31.226Z,85.00
2018-01-26T02:14:58.654Z,85.80
2018-01-26T02:17:24.907Z,85.10
2018-01-26T02:19:51.123Z,86.00
2018-01-26T02:22:17.337Z,85.30
2018-01-26T02:24:43.525Z,85.00
2018-01-26T02:27:10.457Z,85.10
2018-01-26T02:29:36.614Z,85.70
2018-01-26T02:32:04.181Z,85.50
2018-01-26T02:34:30.342Z,85.20
2018-01-26T02:36:56.541Z,85.70
2018-01-26T02:39:22.689Z,86.30
2018-01-26T02:41:49.788Z,85.40
2018-01-26T02:44:15.992Z,85.60
2018-01-26T02:46:42.926Z,85.60
2018-01-26T02:49:09.566Z,85.20
2018-01-26T02:51:35.824Z,85.60
2018-01-26T02:54:02.764Z,86.00
2018-01-26T02:56:29.079Z,86.00
2018-01-26T02:58:55.267Z,86.00
2018-01-26T03:01:21.462Z,86.40
2018-01-26T03:03:47.859Z,86.30
2018-01-26T03:06:15.043Z,85.30
2018-01-26T03:08:42.017Z,85.70
2018-01-26T03:11:09.270Z,86.40
2018-01-26T03:13:37.321Z,86.70
2018-01-26T03:16:04.257Z,86.80
2018-01-26T03:18:30.672Z,86.50
2018-01-26T03:20:57.625Z,86.70
2018-01-26T03:23:26.700Z,86.70
2018-01-26T03:25:52.825Z,87.30
2018-01-26T03:28:19.068Z,86.70
2018-01-26T03:30:45.272Z,86.20
2018-01-26T03:33:11.737Z,86.80
2018-01-26T03:35:37.905Z,86.70
2018-01-26T03:38:04.152Z,86.50
2018-01-26T03:40:30.322Z,87.10
2018-01-26T03:42:56.865Z,86.80
2018-01-26T03:45:23.022Z,87.00
2018-01-26T03:47:49.924Z,87.00
2018-01-26T03:50:16.172Z,86.80
2018-01-26T03:55:40.116Z,86.60
2018-01-26T03:58:06.307Z,86.70
2018-01-26T04:00:33.218Z,87.10
2018-01-26T04:02:59.361Z,87.30
2018-01-26T04:05:25.537Z,87.80
2018-01-26T04:07:51.694Z,87.90
2018-01-26T04:10:17.926Z,88.10
2018-01-26T04:12:44.070Z,88.60
2018-01-26T04:15:10.305Z,88.60
2018-01-26T04:17:36.493Z,88.10
2018-01-26T04:20:02.757Z,88.10
2018-01-26T04:22:28.973Z,88.10
2018-01-26T04:24:56.118Z,88.10
2018-01-26T04:27:22.390Z,87.50
2018-01-26T04:29:49.332Z,87.70
2018-01-26T04:32:16.388Z,88.00
2018-01-26T04:34:43.409Z,87.80
2018-01-26T04:37:09.671Z,87.80
2018-01-26T04:39:36.719Z,88.30
2018-01-26T04:42:03.637Z,88.70
2018-01-26T04:44:29.831Z,88.10
2018-01-26T04:46:55.991Z,88.70
2018-01-26T04:49:22.192Z,88.60
2018-01-26T04:51:48.382Z,87.40
2018-01-26T04:54:14.589Z,87.90
2018-01-26T04:56:41.500Z,88.30
2018-01-26T04:59:07.718Z,87.70
2018-01-26T05:01:33.943Z,88.50
2018-01-26T05:04:00.107Z,88.60
2018-01-26T05:06:26.307Z,88.00
2018-01-26T05:08:52.528Z,87.90
2018-01-26T05:11:19.806Z,88.50
2018-01-26T05:13:46.856Z,88.50
2018-01-26T05:16:13.064Z,88.60
2018-01-26T05:18:40.949Z,88.60
2018-01-26T05:21:07.153Z,88.70
2018-01-26T05:23:33.342Z,88.60
2018-01-26T05:26:00.307Z,88.10
2018-01-26T05:28:26.876Z,88.10
2018-01-26T05:30:53.105Z,88.10
2018-01-26T05:33:19.314Z,88.10
2018-01-26T05:35:45.880Z,88.10
2018-01-26T05:38:12.044Z,87.80
2018-01-26T05:40:39.988Z,88.60
2018-01-26T05:43:06.203Z,88.00
2018-01-26T05:45:32.426Z,88.50
2018-01-26T05:47:58.609Z,88.50
2018-01-26T05:50:27.055Z,88.60
2018-01-26T05:52:55.179Z,88.60
2018-01-26T05:55:23.002Z,89.00
2018-01-26T05:57:49.223Z,89.40
2018-01-26T06:00:15.490Z,89.20
2018-01-26T06:02:42.435Z,89.60
2018-01-26T06:05:10.218Z,89.70
2018-01-26T06:07:36.398Z,89.90
2018-01-26T06:19:48.349Z,90.20
2018-01-26T06:22:14.534Z,90.00
2018-01-26T06:24:42.757Z,90.20
2018-01-26T06:27:08.962Z,90.30
2018-01-26T06:29:36.067Z,90.40
2018-01-26T06:32:03.962Z,90.50
2018-01-26T06:34:30.167Z,90.40
2018-01-26T06:36:57.075Z,90.50
2018-01-26T06:39:23.930Z,90.30
2018-01-26T06:41:52.402Z,90.50
2018-01-26T06:44:18.590Z,90.40
2018-01-26T06:46:44.765Z,90.40
2018-01-26T06:49:10.974Z,89.80
2018-01-26T06:51:37.172Z,90.00
2018-01-26T06:54:04.447Z,90.00
2018-01-26T06:56:30.641Z,90.30
2018-01-26T06:58:56.837Z,90.30
2018-01-26T07:01:23.028Z,89.90
2018-01-26T07:03:49.221Z,90.00
2018-01-26T07:06:16.992Z,90.10
2018-01-26T07:08:43.961Z,90.20
2018-01-26T07:11:10.952Z,90.10
2018-01-26T07:13:37.092Z,89.30
2018-01-26T07:16:04.099Z,90.00
2018-01-26T07:18:30.327Z,89.40
2018-01-26T07:20:57.472Z,89.60
2018-01-26T07:23:23.682Z,89.70
2018-01-26T07:25:49.853Z,90.10
2018-01-26T07:28:16.074Z,90.10
2018-01-26T07:30:43.261Z,90.00
2018-01-26T07:33:10.220Z,90.20
2018-01-26T07:35:37.150Z,89.90
2018-01-26T07:38:04.066Z,90.20
2018-01-26T07:40:30.248Z,90.10
2018-01-26T07:42:57.360Z,90.00
2018-01-26T07:45:23.544Z,90.00
2018-01-26T07:47:49.801Z,89.60
2018-01-26T07:50:16.537Z,90.10
2018-01-26T07:52:42.702Z,89.10
2018-01-26T07:55:24.609Z,89.10
2018-01-26T07:57:51.516Z,89.20
2018-01-26T08:00:18.723Z,89.20
2018-01-26T08:02:44.909Z,88.40
2018-01-26T08:05:11.177Z,88.90
2018-01-26T08:07:37.315Z,88.30
2018-01-26T08:10:03.538Z,88.40
2018-01-26T08:12:29.818Z,88.80
2018-01-26T08:14:56.053Z,88.60
2018-01-26T08:17:22.225Z,89.10
2018-01-26T08:19:48.402Z,89.60
2018-01-26T08:22:14.594Z,88.50
2018-01-26T08:24:40.792Z,88.50
2018-01-26T08:27:07.027Z,88.10
2018-01-26T08:29:33.190Z,87.50
2018-01-26T08:31:59.406Z,87.60
2018-01-26T08:34:28.190Z,87.30
2018-01-26T08:36:55.432Z,86.90
2018-01-26T08:39:22.619Z,87.50
2018-01-26T08:41:49.701Z,86.30
2018-01-26T08:44:15.965Z,86.00
2018-01-26T08:46:42.140Z,86.60
2018-01-26T08:58:53.367Z,85.20
2018-01-26T09:01:19.615Z,85.00
2018-01-26T09:03:47.773Z,84.30
2018-01-26T09:06:13.934Z,84.90
2018-01-26T09:08:40.116Z,84.60
2018-01-26T09:11:06.390Z,83.10
2018-01-26T09:13:33.448Z,83.00
2018-01-26T09:16:01.672Z,82.30
2018-01-26T09:18:29.027Z,81.50
2018-01-26T09:20:55.369Z,81.60
2018-01-26T09:23:21.517Z,82.00
2018-01-26T09:25:48.014Z,81.50
2018-01-26T09:28:14.414Z,80.70
2018-01-26T09:30:41.571Z,80.50
2018-01-26T09:33:07.806Z,79.80
2018-01-26T09:35:34.848Z,78.60
2018-01-26T09:38:01.101Z,77.00
2018-01-26T09:40:27.319Z,76.60
2018-01-26T09:42:54.191Z,75.60
2018-01-26T09:45:20.394Z,75.40
2018-01-26T09:47:46.608Z,75.00
2018-01-26T09:50:14.358Z,74.50
2018-01-26T09:52:42.056Z,74.80
2018-01-26T09:55:09.027Z,74.30
2018-01-26T09:57:35.201Z,74.20
2018-01-26T10:09:47.176Z,76.10
2018-01-26T10:12:14.055Z,76.60
2018-01-26T10:14:40.243Z,76.60
2018-01-26T10:17:07.150Z,76.20
2018-01-26T10:19:33.454Z,75.70
2018-01-26T10:21:59.641Z,75.70
2018-01-26T10:24:25.860Z,76.20
2018-01-26T10:26:52.801Z,76.60
2018-01-26T10:29:18.921Z,76.60
2018-01-26T10:31:45.138Z,76.60
2018-01-26T10:34:11.361Z,76.20
2018-01-26T10:49:39.590Z,76.40
2018-01-26T10:52:05.749Z,76.10
2018-01-26T10:54:32.709Z,76.60
2018-01-26T10:56:59.866Z,76.20
2018-01-26T10:59:26.177Z,76.20
2018-01-26T11:01:52.330Z,76.30
2018-01-26T11:04:19.640Z,80.20
2018-01-26T11:06:46.099Z,78.50
2018-01-26T11:09:12.303Z,73.60
2018-01-26T11:11:38.437Z,76.50
2018-01-26T11:14:05.647Z,77.30
2018-01-26T11:16:32.562Z,71.30
2018-01-26T11:18:58.724Z,71.80
2018-01-26T11:21:25.150Z,70.40
2018-01-26T11:23:52.075Z,70.70
2018-01-26T11:26:19.162Z,70.80
2018-01-26T11:28:45.338Z,70.40
2018-01-26T11:41:01.931Z,74.20
2018-01-26T11:43:28.616Z,74.40
2018-01-26T11:45:54.936Z,73.30
2018-01-26T11:48:21.099Z,74.00
2018-01-26T11:50:47.295Z,74.80
2018-01-26T11:53:13.510Z,74.40
2018-01-26T11:55:40.478Z,72.80
2018-01-26T11:58:06.756Z,72.80
2018-01-26T12:00:33.173Z,72.70
2018-01-26T12:02:59.333Z,73.00
2018-01-26T12:05:26.311Z,73.50
2018-01-26T12:07:53.402Z,73.20
2018-01-26T12:10:20.309Z,73.20
2018-01-26T12:12:47.155Z,73.80
2018-01-26T12:15:13.406Z,73.70
2018-01-26T12:17:39.588Z,73.50
2018-01-26T12:20:06.507Z,73.80
2018-01-26T12:22:32.772Z,73.80
2018-01-26T12:25:01.009Z,73.00
2018-01-26T12:37:17.585Z,71.70
2018-01-26T12:39:43.760Z,73.80
2018-01-26T12:42:10.028Z,73.90
2018-01-26T12:44:36.243Z,74.50
2018-01-26T12:47:04.073Z,74.00
2018-01-26T12:49:30.265Z,74.50
2018-01-26T12:51:56.506Z,73.10
2018-01-26T12:54:23.487Z,74.60
2018-01-26T12:56:49.680Z,74.50
2018-01-26T12:59:16.874Z,74.10
2018-01-26T13:01:43.515Z,74.00
2018-01-26T13:04:11.892Z,74.60
2018-01-26T13:06:38.160Z,74.30
2018-01-26T13:09:05.214Z,73.80
2018-01-26T13:11:31.414Z,74.10
2018-01-26T13:13:57.648Z,73.80
2018-01-26T13:16:24.266Z,74.40
2018-01-26T13:18:52.586Z,73.80
2018-01-26T13:21:18.870Z,73.80
2018-01-26T13:23:46.008Z,74.40
2018-01-26T13:26:12.971Z,74.20
2018-01-26T13:28:39.942Z,74.30
2018-01-26T13:31:06.185Z,75.50
2018-01-26T13:33:32.397Z,74.00
2018-01-26T13:36:00.698Z,73.90
2018-01-26T13:38:26.883Z,74.50
2018-01-26T13:40:54.408Z,77.30
2018-01-26T13:43:21.377Z,79.80
2018-01-26T13:45:48.386Z,80.40
2018-01-26T13:48:15.498Z,80.90
2018-01-26T13:50:43.041Z,81.70
2018-01-26T13:53:10.255Z,81.60
2018-01-26T13:55:36.503Z,81.30
2018-01-26T13:58:04.612Z,82.70
2018-01-26T14:10:21.546Z,81.20
2018-01-26T14:12:49.325Z,81.20
2018-01-26T14:15:16.356Z,80.60
2018-01-26T14:17:44.239Z,79.50
2018-01-26T14:20:11.356Z,77.90
2018-01-26T14:22:37.899Z,77.90
2018-01-26T14:25:04.745Z,78.40
2018-01-26T14:27:31.644Z,77.60
2018-01-26T14:29:58.040Z,79.10
2018-01-26T14:32:25.315Z,80.50
2018-01-26T14:34:52.419Z,80.00
2018-01-26T14:37:18.789Z,80.20
2018-01-26T14:39:45.717Z,79.40
2018-01-26T14:42:12.650Z,80.00
2018-01-26T14:44:41.347Z,80.60
2018-01-26T14:47:09.203Z,80.00
2018-01-26T14:49:36.330Z,79.80
2018-01-26T14:52:03.065Z,79.30
2018-01-26T14:54:29.847Z,79.30
2018-01-26T14:56:59.238Z,80.60
2018-01-26T14:59:26.189Z,79.90
2018-01-26T15:01:52.401Z,78.70
2018-01-26T15:04:18.789Z,79.30
2018-01-26T15:06:45.117Z,80.10
2018-01-26T15:09:12.211Z,79.60
2018-01-26T15:11:40.066Z,80.00
2018-01-26T15:14:06.364Z,79.70
2018-01-26T15:16:32.641Z,79.40
2018-01-26T15:18:58.923Z,80.00
2018-01-26T15:21:25.821Z,80.30
2018-01-26T15:23:52.099Z,81.20
2018-01-26T15:26:18.780Z,81.60
2018-01-26T15:28:45.953Z,81.90
2018-01-26T15:31:13.639Z,82.30
2018-01-26T15:33:42.261Z,82.40
2018-01-26T15:36:09.289Z,81.30
2018-01-26T15:48:20.572Z,81.60
2018-01-26T15:50:46.981Z,81.80
2018-01-26T15:53:14.161Z,82.60
2018-01-26T15:55:40.470Z,83.10
2018-01-26T15:58:08.392Z,81.80
2018-01-26T16:00:35.472Z,82.30
2018-01-26T16:03:03.630Z,82.30
2018-01-26T16:05:30.769Z,82.30
2018-01-26T16:07:58.806Z,81.40
2018-01-26T16:10:26.706Z,80.80
2018-01-26T16:12:54.599Z,82.30
2018-01-26T16:15:22.540Z,81.60
2018-01-26T16:17:49.557Z,82.00
2018-01-26T16:20:16.811Z,81.80
2018-01-26T16:22:46.805Z,81.60
2018-01-26T16:25:13.389Z,81.60
2018-01-26T16:27:39.622Z,81.50
2018-01-26T16:30:05.861Z,81.80
2018-01-26T16:32:33.928Z,82.60
2018-01-26T16:35:00.920Z,82.50
2018-01-26T16:37:27.951Z,82.00
2018-01-26T16:39:55.188Z,82.20
2018-01-26T16:42:24.996Z,82.80
2018-01-26T16:44:53.133Z,82.80
2018-01-26T16:47:19.807Z,82.90
2018-01-26T16:49:46.185Z,83.50
2018-01-26T16:52:14.273Z,83.20
2018-01-26T16:54:41.306Z,83.10
2018-01-26T16:57:07.545Z,83.60
2018-01-26T16:59:34.142Z,82.80
2018-01-26T17:02:00.558Z,82.90
2018-01-26T17:04:30.801Z,83.50
2018-01-26T17:06:57.920Z,82.90
2018-01-26T17:09:25.150Z,83.10
2018-01-26T17:11:52.730Z,83.40
2018-01-26T17:14:19.003Z,89.20
2018-01-26T17:16:45.959Z,83.00
2018-01-26T17:19:12.371Z,84.00
2018-01-26T17:21:39.495Z,83.90
2018-01-26T17:24:05.808Z,83.10
2018-01-26T17:26:32.065Z,81.70
2018-01-26T17:28:59.108Z,82.30
2018-01-26T17:31:26.180Z,82.90
2018-01-26T17:33:55.048Z,83.00
2018-01-26T17:36:22.006Z,84.10
2018-01-26T17:38:49.174Z,84.30
2018-01-26T17:41:15.361Z,84.30
2018-01-26T17:43:44.622Z,84.50
2018-01-26T17:46:10.814Z,84.50
2018-01-26T17:48:37.089Z,84.90
2018-01-26T17:51:04.839Z,85.10
2018-01-26T17:53:31.612Z,84.40
2018-01-26T17:55:58.270Z,84.80
2018-01-26T17:58:27.770Z,85.50
2018-01-26T18:00:56.147Z,85.30
2018-01-26T18:03:22.393Z,84.80
2018-01-26T18:05:49.323Z,85.40
2018-01-26T18:08:18.159Z,85.60
2018-01-26T18:10:46.148Z,85.60
2018-01-26T18:13:12.417Z,84.80
2018-01-26T18:15:39.526Z,85.10
2018-01-26T18:18:06.074Z,85.70
2018-01-26T18:20:33.240Z,86.20
2018-01-26T18:22:59.440Z,86.20
2018-01-26T18:25:26.682Z,85.90
2018-01-26T18:37:38.964Z,86.10
2018-01-26T18:40:05.465Z,85.60
2018-01-26T18:42:34.419Z,86.10
2018-01-26T18:45:02.002Z,86.00
2018-01-26T18:47:28.930Z,86.20
2018-01-26T18:49:55.162Z,85.60
2018-01-26T18:52:21.436Z,85.60
2018-01-26T18:54:48.551Z,85.80
2018-01-26T18:57:14.695Z,85.00
2018-01-26T18:59:41.603Z,85.50
2018-01-26T19:02:07.778Z,85.00
2018-01-26T19:14:19.062Z,85.40
2018-01-26T19:16:45.417Z,85.80
2018-01-26T19:19:12.711Z,86.20
2018-01-26T19:31:24.364Z,85.80
2018-01-26T19:33:56.075Z,86.20
2018-01-26T19:36:23.008Z,86.70
2018-01-26T19:38:51.362Z,87.10
2018-01-26T19:41:17.828Z,87.00
2018-01-26T19:43:44.958Z,86.70
2018-01-26T19:46:13.239Z,87.20
2018-01-26T19:48:40.348Z,86.00
2018-01-26T19:51:07.308Z,85.70
2018-01-26T19:53:34.987Z,85.60
2018-01-26T19:56:01.483Z,85.40
2018-01-26T19:58:29.730Z,85.50
2018-01-26T20:00:57.055Z,86.20
2018-01-26T20:03:32.719Z,86.00
2018-01-26T20:06:05.215Z,85.40
2018-01-26T20:08:40.202Z,85.00
2018-01-26T20:11:06.478Z,85.10
2018-01-26T20:13:34.017Z,85.30
2018-01-26T20:16:00.652Z,85.60
2018-01-26T20:18:26.854Z,85.70
2018-01-26T20:21:05.031Z,86.10
2018-01-26T20:23:31.626Z,86.10
2018-01-26T20:25:57.903Z,86.50
2018-01-26T20:28:25.412Z,87.00
2018-01-26T20:30:52.442Z,87.10
2018-01-26T20:33:21.168Z,86.70
2018-01-26T20:35:47.666Z,86.40
2018-01-26T20:38:13.889Z,87.00
2018-01-26T20:40:41.245Z,87.40
2018-01-26T20:43:09.032Z,87.40
2018-01-26T20:45:35.379Z,86.50
2018-01-26T20:48:01.659Z,87.00
2018-01-26T20:50:28.384Z,86.50
2018-01-26T20:52:54.782Z,86.60
2018-01-26T20:55:21.963Z,86.80
2018-01-26T20:57:49.019Z,86.40
2018-01-26T21:00:16.217Z,86.40
2018-01-26T21:02:43.265Z,86.10
2018-01-26T21:05:10.747Z,86.20
2018-01-26T21:07:38.702Z,86.80
2018-01-26T21:10:05.445Z,87.00
2018-01-26T21:12:31.738Z,86.80
2018-01-26T21:14:59.768Z,87.30
2018-01-26T21:17:26.121Z,87.30
2018-01-26T21:19:52.335Z,87.30
2018-01-26T21:22:18.627Z,87.30
2018-01-26T21:24:45.601Z,87.90
2018-01-26T21:27:11.871Z,86.80
2018-01-26T21:29:39.789Z,87.40
2018-01-26T21:41:51.029Z,86.60
2018-01-26T21:44:17.330Z,86.90
2018-01-26T21:46:46.614Z,88.10
2018-01-26T21:49:12.998Z,87.20
2018-01-26T21:51:39.315Z,87.20
2018-01-26T21:54:05.808Z,87.50
2018-01-26T21:56:32.505Z,87.80
2018-01-26T21:58:58.770Z,87.10
2018-01-26T22:01:25.110Z,87.30
2018-01-26T22:03:52.142Z,87.30
2018-01-26T22:06:24.473Z,87.10
2018-01-26T22:08:51.525Z,87.60
2018-01-26T22:11:18.771Z,86.50
2018-01-26T22:13:45.019Z,87.00
2018-01-26T22:16:11.295Z,85.90
2018-01-26T22:18:39.046Z,86.20
2018-01-26T22:21:05.269Z,85.50
2018-01-26T22:23:31.595Z,85.30
2018-01-26T22:25:58.277Z,85.50
2018-01-26T22:28:25.658Z,85.80
2018-01-26T22:30:52.869Z,86.00
2018-01-26T22:33:19.888Z,86.70
2018-01-26T22:35:46.120Z,86.10
2018-01-26T22:38:12.389Z,86.30
2018-01-26T22:40:38.962Z,85.90
2018-01-26T22:43:05.277Z,86.00
2018-01-26T22:45:31.532Z,85.50
2018-01-26T22:47:58.901Z,85.20
2018-01-26T22:50:25.221Z,85.00
2018-01-26T23:02:41.573Z,85.00
2018-01-26T23:05:08.807Z,85.00
2018-01-26T23:07:36.718Z,84.70
2018-01-26T23:10:02.935Z,85.30
2018-01-26T23:12:30.447Z,85.00
2018-01-26T23:14:57.652Z,85.40
2018-01-26T23:17:23.849Z,84.80
2018-01-26T23:19:50.097Z,84.60
2018-01-26T23:22:17.264Z,84.90
2018-01-26T23:24:43.700Z,85.00
2018-01-26T23:27:12.310Z,85.80
2018-01-26T23:29:39.554Z,85.10
2018-01-26T23:32:05.907Z,86.20
2018-01-26T23:34:32.917Z,85.00
2018-01-26T23:36:59.164Z,84.50
2018-01-26T23:39:25.448Z,84.50
2018-01-26T23:41:51.689Z,84.10
2018-01-26T23:44:18.644Z,84.90
2018-01-26T23:46:45.191Z,84.40
2018-01-26T23:49:11.973Z,84.40
2018-01-26T23:51:39.977Z,85.30
2018-01-26T23:54:06.203Z,84.90
2018-01-26T23:56:32.398Z,84.60
2018-01-26T23:59:00.624Z,85.00
